Time;durP1;ratioP1;P1;durP2;ratioP2;P2;SDS_P1;SDS_P2;PMS_P1;PMS_P2;Temp;Humidity;BMP_temperature;BMP_pressure;BME280_temperature;BME280_humidity;BME280_pressure;Samples;Min_cycle;Max_cycle;Signal;HPM_P1;HPM_P2
2024/03/02 00:02:25;;;;;;;71.17;39.60;;;;;;;;;;6301915;28;24476;-83
2024/03/02 00:05:26;;;;;;;89.75;56.58;;;;;;;;;;6299606;28;24529;-83
2024/03/02 00:08:28;;;;;;;70.28;39.05;;;;;;;;;;6301131;28;24498;-83
2024/03/02 00:11:30;;;;;;;58.95;34.80;;;;;;;;;;6298855;28;24925;-84
2024/03/02 00:14:33;;;;;;;44.92;27.98;;;;;;;;;;6301661;28;24485;-83
2024/03/02 00:17:35;;;;;;;30.95;20.85;;;;;;;;;;6307738;28;24418;-83
2024/03/02 00:20:37;;;;;;;14.48;11.20;;;;;;;;;;6278411;28;24628;-82
2024/03/02 00:23:39;;;;;;;11.98;9.75;;;;;;;;;;6295514;28;24813;-84
2024/03/02 00:26:41;;;;;;;11.77;9.40;;;;;;;;;;6304244;28;24621;-82
2024/03/02 00:29:44;;;;;;;12.73;9.75;;;;;;;;;;6326504;28;24864;-83
2024/03/02 00:32:46;;;;;;;13.60;9.48;;;;;;;;;;6328642;28;24496;-83
2024/03/02 00:35:48;;;;;;;10.82;9.30;;;;;;;;;;6319686;28;24442;-83
2024/03/02 00:38:51;;;;;;;12.40;9.57;;;;;;;;;;6326349;28;24420;-82
2024/03/02 00:41:53;;;;;;;12.82;9.75;;;;;;;;;;6318910;28;24421;-82
2024/03/02 00:44:56;;;;;;;12.52;9.55;;;;;;;;;;6322773;28;24457;-83
2024/03/02 00:47:58;;;;;;;12.55;9.63;;;;;;;;;;6324973;28;24416;-83
2024/03/02 00:50:59;;;;;;;14.35;9.77;;;;;;;;;;6322643;28;24457;-82
2024/03/02 00:54:03;;;;;;;12.30;10.07;;;;;;;;;;6320023;28;24418;-82
2024/03/02 00:57:05;;;;;;;13.10;10.23;;;;;;;;;;6319451;28;24422;-81
2024/03/02 01:00:11;;;;;;;12.85;10.05;;;;;;;;;;6320027;28;24433;-82
2024/03/02 01:03:14;;;;;;;15.43;9.88;;;;;;;;;;6320783;28;24423;-82
2024/03/02 01:06:16;;;;;;;12.88;9.77;;;;;;;;;;6321162;28;24445;-82
2024/03/02 01:09:17;;;;;;;13.07;10.10;;;;;;;;;;6317239;28;24419;-83
2024/03/02 01:12:19;;;;;;;12.00;9.73;;;;;;;;;;6315025;28;24509;-85
2024/03/02 01:15:22;;;;;;;13.50;10.70;;;;;;;;;;6319720;28;24667;-84
2024/03/02 01:18:24;;;;;;;13.52;10.40;;;;;;;;;;6321598;28;24425;-82
2024/03/02 01:21:26;;;;;;;14.82;11.30;;;;;;;;;;6324147;28;24418;-82
2024/03/02 01:24:28;;;;;;;12.90;10.37;;;;;;;;;;6320094;28;24502;-82
2024/03/02 01:27:30;;;;;;;12.70;10.55;;;;;;;;;;6322527;28;24426;-83
2024/03/02 01:30:33;;;;;;;12.43;10.27;;;;;;;;;;6322171;28;24422;-84
2024/03/02 01:33:35;;;;;;;12.40;10.18;;;;;;;;;;6323328;28;25154;-85
2024/03/02 01:36:37;;;;;;;15.23;10.43;;;;;;;;;;6325283;28;24601;-81
2024/03/02 01:39:39;;;;;;;14.65;10.77;;;;;;;;;;6319921;28;24455;-83
2024/03/02 01:42:40;;;;;;;13.48;10.70;;;;;;;;;;6325923;28;24490;-85
2024/03/02 01:45:44;;;;;;;12.57;10.53;;;;;;;;;;6328883;28;25023;-83
2024/03/02 01:48:46;;;;;;;12.88;10.60;;;;;;;;;;6319459;28;24490;-83
2024/03/02 01:51:47;;;;;;;12.90;9.93;;;;;;;;;;6318817;28;24871;-84
2024/03/02 01:54:49;;;;;;;14.93;9.77;;;;;;;;;;6321828;28;24607;-83
2024/03/02 01:57:51;;;;;;;11.57;9.63;;;;;;;;;;6329539;28;24497;-83
2024/03/02 02:00:55;;;;;;;11.52;9.63;;;;;;;;;;6319580;28;24497;-83
2024/03/02 02:03:56;;;;;;;10.68;8.93;;;;;;;;;;6317593;28;24434;-84
2024/03/02 02:06:58;;;;;;;12.93;9.40;;;;;;;;;;6321793;28;24445;-84
2024/03/02 02:10:01;;;;;;;10.27;8.52;;;;;;;;;;6319185;28;25040;-84
2024/03/02 02:13:03;;;;;;;11.43;9.15;;;;;;;;;;6323976;28;24510;-85
2024/03/02 02:16:09;;;;;;;11.20;9.40;;;;;;;;;;6321392;28;24430;-82
2024/03/02 02:19:11;;;;;;;12.03;9.70;;;;;;;;;;6320536;28;24973;-83
2024/03/02 02:22:14;;;;;;;13.52;10.10;;;;;;;;;;6319633;28;24829;-84
2024/03/02 02:25:16;;;;;;;11.68;9.93;;;;;;;;;;6316006;28;24441;-82
2024/03/02 02:28:18;;;;;;;12.35;9.63;;;;;;;;;;6318664;28;24442;-82
2024/03/02 02:31:20;;;;;;;11.85;9.65;;;;;;;;;;6316663;28;24449;-84
2024/03/02 02:34:22;;;;;;;11.98;9.25;;;;;;;;;;6317391;28;24437;-83
2024/03/02 02:37:25;;;;;;;10.77;8.48;;;;;;;;;;6314137;28;24414;-83
2024/03/02 02:40:29;;;;;;;10.30;8.37;;;;;;;;;;6316738;28;24421;-83
2024/03/02 02:43:33;;;;;;;10.38;7.80;;;;;;;;;;6318365;28;24414;-84
2024/03/02 02:46:35;;;;;;;10.85;7.65;;;;;;;;;;6318644;28;24622;-85
2024/03/02 02:49:37;;;;;;;9.75;7.60;;;;;;;;;;6317576;28;24944;-84
2024/03/02 02:52:41;;;;;;;9.20;7.07;;;;;;;;;;6315145;28;24826;-82
2024/03/02 02:55:43;;;;;;;8.90;6.70;;;;;;;;;;6320946;28;24437;-84
2024/03/02 02:58:45;;;;;;;10.68;7.13;;;;;;;;;;6320305;28;24429;-82
2024/03/02 03:01:46;;;;;;;9.98;7.25;;;;;;;;;;6318805;28;24427;-86
2024/03/02 03:04:48;;;;;;;9.32;7.30;;;;;;;;;;6320528;28;24422;-82
2024/03/02 03:07:54;;;;;;;11.43;7.60;;;;;;;;;;6331943;28;24418;-83
2024/03/02 03:10:56;;;;;;;10.23;7.35;;;;;;;;;;6324659;28;24437;-84
2024/03/02 03:14:00;;;;;;;9.43;7.30;;;;;;;;;;6326355;28;24419;-83
2024/03/02 03:17:01;;;;;;;11.43;7.60;;;;;;;;;;6329766;28;24419;-87
2024/03/02 03:20:05;;;;;;;8.80;7.05;;;;;;;;;;6330478;28;24413;-82
2024/03/02 03:23:08;;;;;;;9.95;7.38;;;;;;;;;;6329965;28;24479;-85
2024/03/02 03:26:10;;;;;;;11.10;7.32;;;;;;;;;;6326822;28;25236;-83
2024/03/02 03:29:12;;;;;;;11.20;7.43;;;;;;;;;;6323837;28;24657;-83
2024/03/02 03:32:13;;;;;;;9.57;7.50;;;;;;;;;;6324666;28;24419;-83
2024/03/02 03:35:15;;;;;;;10.95;7.35;;;;;;;;;;6321323;28;24618;-83
2024/03/02 03:38:19;;;;;;;11.75;7.60;;;;;;;;;;6325940;28;24630;-82
2024/03/02 03:41:20;;;;;;;11.43;7.90;;;;;;;;;;6326954;28;24425;-84
2024/03/02 03:44:22;;;;;;;12.23;8.00;;;;;;;;;;6329117;28;24421;-83
2024/03/02 03:47:24;;;;;;;11.57;7.93;;;;;;;;;;6321688;28;24521;-81
2024/03/02 03:50:26;;;;;;;11.68;7.95;;;;;;;;;;6327026;28;24432;-81
2024/03/02 03:53:29;;;;;;;11.88;8.05;;;;;;;;;;6323109;28;24414;-82
2024/03/02 03:56:30;;;;;;;12.30;7.77;;;;;;;;;;6325952;28;24669;-82
2024/03/02 03:59:33;;;;;;;12.07;8.10;;;;;;;;;;6323181;28;24433;-83
2024/03/02 04:02:35;;;;;;;9.70;7.80;;;;;;;;;;6322518;28;24843;-84
2024/03/02 04:05:37;;;;;;;11.40;8.20;;;;;;;;;;6318924;28;24817;-84
2024/03/02 04:08:40;;;;;;;12.52;8.18;;;;;;;;;;6313533;28;24631;-86
2024/03/02 04:11:42;;;;;;;12.03;8.73;;;;;;;;;;6318703;28;24975;-84
2024/03/02 04:14:43;;;;;;;11.65;8.43;;;;;;;;;;6319073;28;24545;-82
2024/03/02 04:17:46;;;;;;;12.00;8.25;;;;;;;;;;6321157;28;24423;-83
2024/03/02 04:20:47;;;;;;;12.63;8.93;;;;;;;;;;6319295;28;24425;-82
2024/03/02 04:23:51;;;;;;;14.50;8.90;;;;;;;;;;6324599;28;24506;-82
2024/03/02 04:26:53;;;;;;;11.32;8.27;;;;;;;;;;6319950;28;24437;-82
2024/03/02 04:29:55;;;;;;;10.48;7.88;;;;;;;;;;6329480;28;24438;-81
2024/03/02 04:32:56;;;;;;;13.27;8.13;;;;;;;;;;6327126;28;24430;-84
2024/03/02 04:35:58;;;;;;;11.20;8.30;;;;;;;;;;6323692;28;24419;-83
2024/03/02 04:39:01;;;;;;;11.63;8.13;;;;;;;;;;6328749;28;24477;-83
2024/03/02 04:42:03;;;;;;;10.68;8.45;;;;;;;;;;6320661;28;24498;-85
2024/03/02 04:45:06;;;;;;;11.80;8.35;;;;;;;;;;6328590;28;24434;-85
2024/03/02 04:48:08;;;;;;;10.65;8.13;;;;;;;;;;6323251;28;24464;-83
2024/03/02 04:51:11;;;;;;;10.65;8.10;;;;;;;;;;6324195;28;24440;-82
2024/03/02 04:54:14;;;;;;;13.33;8.47;;;;;;;;;;6322375;28;24879;-82
2024/03/02 04:57:16;;;;;;;13.65;8.45;;;;;;;;;;6324500;28;24472;-81
2024/03/02 05:00:18;;;;;;;11.43;8.87;;;;;;;;;;6324394;28;24713;-83
2024/03/02 05:03:20;;;;;;;10.65;8.45;;;;;;;;;;6323478;28;25474;-81
2024/03/02 05:06:22;;;;;;;12.48;9.13;;;;;;;;;;6325694;28;24426;-85
2024/03/02 05:09:25;;;;;;;15.57;8.90;;;;;;;;;;6319143;28;24528;-84
2024/03/02 05:12:55;;;;;;;14.17;10.20;;;;;;;;;;6324629;28;24419;-84
2024/03/02 05:15:57;;;;;;;14.30;11.10;;;;;;;;;;6320095;28;24494;-84
2024/03/02 05:18:59;;;;;;;14.82;11.13;;;;;;;;;;6323716;28;24419;-86
2024/03/02 05:22:01;;;;;;;14.70;11.02;;;;;;;;;;6322883;28;24465;-86
2024/03/02 05:25:05;;;;;;;13.90;10.40;;;;;;;;;;6318740;28;25050;-84
2024/03/02 05:28:07;;;;;;;13.25;10.20;;;;;;;;;;6324064;28;24475;-83
2024/03/02 05:31:11;;;;;;;14.73;10.77;;;;;;;;;;6324596;28;24439;-85
2024/03/02 05:34:13;;;;;;;14.90;10.15;;;;;;;;;;6323534;28;24488;-83
2024/03/02 05:37:15;;;;;;;11.50;9.00;;;;;;;;;;6321814;28;24418;-85
2024/03/02 05:40:18;;;;;;;13.37;9.60;;;;;;;;;;6316253;28;24583;-84
2024/03/02 05:43:20;;;;;;;13.18;10.05;;;;;;;;;;6317925;28;24482;-82
2024/03/02 05:46:22;;;;;;;13.10;9.82;;;;;;;;;;6320603;28;24445;-84
2024/03/02 05:49:24;;;;;;;14.07;10.40;;;;;;;;;;6319869;28;24418;-84
2024/03/02 05:52:26;;;;;;;14.25;10.82;;;;;;;;;;6318012;28;24427;-85
2024/03/02 05:55:29;;;;;;;13.98;10.10;;;;;;;;;;6323274;28;24418;-85
2024/03/02 05:58:43;;;;;;;16.63;10.52;;;;;;;;;;6327098;28;24509;-85
2024/03/02 06:01:46;;;;;;;14.48;10.05;;;;;;;;;;6322878;28;24425;-83
2024/03/02 06:04:48;;;;;;;13.57;9.98;;;;;;;;;;6316563;28;24903;-83
2024/03/02 06:07:49;;;;;;;13.23;9.65;;;;;;;;;;6328244;28;25222;-84
2024/03/02 06:10:52;;;;;;;14.88;9.57;;;;;;;;;;6321992;28;24703;-83
2024/03/02 06:13:54;;;;;;;13.68;8.70;;;;;;;;;;6323899;28;24618;-83
2024/03/02 06:16:56;;;;;;;10.60;8.40;;;;;;;;;;6322374;28;24687;-81
2024/03/02 06:19:58;;;;;;;12.43;9.00;;;;;;;;;;6321031;28;24777;-83
2024/03/02 06:23:00;;;;;;;11.02;7.80;;;;;;;;;;6318961;28;24422;-81
2024/03/02 06:26:04;;;;;;;10.82;7.82;;;;;;;;;;6320368;28;24480;-83
2024/03/02 06:29:06;;;;;;;11.63;7.90;;;;;;;;;;6321869;28;24506;-84
2024/03/02 06:32:07;;;;;;;12.37;8.27;;;;;;;;;;6325963;28;24602;-85
2024/03/02 06:35:10;;;;;;;12.07;7.90;;;;;;;;;;6319614;28;24437;-84
2024/03/02 06:38:11;;;;;;;12.45;9.02;;;;;;;;;;6320773;28;24449;-86
2024/03/02 06:41:15;;;;;;;12.55;9.27;;;;;;;;;;6321186;28;24410;-83
2024/03/02 06:44:16;;;;;;;11.85;8.43;;;;;;;;;;6323487;28;24429;-82
2024/03/02 06:47:20;;;;;;;12.30;9.02;;;;;;;;;;6325186;28;24420;-82
2024/03/02 06:50:21;;;;;;;13.45;8.98;;;;;;;;;;6324991;28;24449;-81
2024/03/02 06:53:23;;;;;;;11.88;8.30;;;;;;;;;;6319176;28;24422;-83
2024/03/02 06:56:26;;;;;;;11.45;8.13;;;;;;;;;;6318297;28;24410;-81
2024/03/02 06:59:28;;;;;;;9.57;7.07;;;;;;;;;;6326822;28;24836;-81
2024/03/02 07:02:30;;;;;;;10.55;7.57;;;;;;;;;;6319487;28;24676;-83
2024/03/02 07:05:32;;;;;;;10.07;7.30;;;;;;;;;;6323295;28;24429;-82
2024/03/02 07:08:35;;;;;;;9.98;7.68;;;;;;;;;;6317186;28;24431;-83
2024/03/02 07:11:38;;;;;;;9.73;7.35;;;;;;;;;;6316100;28;24426;-83
2024/03/02 07:15:11;;;;;;;10.15;7.53;;;;;;;;;;6314063;28;24801;-81
2024/03/02 07:18:12;;;;;;;10.15;6.75;;;;;;;;;;6315573;28;24472;-84
2024/03/02 07:21:15;;;;;;;10.25;6.43;;;;;;;;;;6321934;28;24428;-83
2024/03/02 07:24:17;;;;;;;8.82;6.20;;;;;;;;;;6323539;28;24703;-84
2024/03/02 07:27:20;;;;;;;9.05;6.55;;;;;;;;;;6322877;28;24442;-83
2024/03/02 07:30:21;;;;;;;9.40;6.57;;;;;;;;;;6320777;28;24433;-83
2024/03/02 07:33:23;;;;;;;9.82;6.90;;;;;;;;;;6317387;28;24449;-82
2024/03/02 07:36:25;;;;;;;10.55;7.22;;;;;;;;;;6317722;28;24830;-82
2024/03/02 07:39:27;;;;;;;12.43;7.68;;;;;;;;;;6321246;28;24879;-85
2024/03/02 07:42:31;;;;;;;12.18;7.60;;;;;;;;;;6318181;28;24413;-84
2024/03/02 07:45:32;;;;;;;11.90;8.00;;;;;;;;;;6317671;28;24424;-83
2024/03/02 07:48:34;;;;;;;13.38;8.15;;;;;;;;;;6321466;28;24438;-83
2024/03/02 07:51:36;;;;;;;12.38;8.50;;;;;;;;;;6316809;28;24433;-82
2024/03/02 07:54:38;;;;;;;11.98;8.48;;;;;;;;;;6323096;28;24430;-83
2024/03/02 07:57:42;;;;;;;14.60;8.60;;;;;;;;;;6324530;28;24543;-84
2024/03/02 08:00:44;;;;;;;13.25;9.05;;;;;;;;;;6321750;28;24430;-82
2024/03/02 08:03:47;;;;;;;10.80;8.15;;;;;;;;;;6326353;28;24438;-82
2024/03/02 08:06:50;;;;;;;15.10;9.15;;;;;;;;;;6319427;28;24438;-85
2024/03/02 08:09:52;;;;;;;14.23;9.30;;;;;;;;;;6324538;28;24426;-85
2024/03/02 08:12:55;;;;;;;13.77;9.30;;;;;;;;;;6326518;28;24902;-83
2024/03/02 08:15:57;;;;;;;15.50;9.68;;;;;;;;;;6319994;28;24446;-82
2024/03/02 08:18:59;;;;;;;14.10;9.35;;;;;;;;;;6330305;28;24622;-84
2024/03/02 08:22:00;;;;;;;18.38;9.30;;;;;;;;;;6326801;28;24433;-83
2024/03/02 08:25:03;;;;;;;13.05;8.90;;;;;;;;;;6328162;28;24437;-81
2024/03/02 08:28:06;;;;;;;16.88;10.02;;;;;;;;;;6323009;28;24449;-82
2024/03/02 08:31:11;;;;;;;14.27;9.02;;;;;;;;;;6325254;28;24618;-84
2024/03/02 08:34:13;;;;;;;17.38;9.40;;;;;;;;;;6323243;28;24448;-83
2024/03/02 08:37:15;;;;;;;14.02;8.70;;;;;;;;;;6323787;28;24456;-85
2024/03/02 08:40:17;;;;;;;12.80;8.37;;;;;;;;;;6324708;28;24694;-84
2024/03/02 08:43:20;;;;;;;14.02;8.32;;;;;;;;;;6321332;28;24473;-84
2024/03/02 08:46:22;;;;;;;12.80;8.40;;;;;;;;;;6318406;28;24490;-84
2024/03/02 08:49:24;;;;;;;14.35;8.93;;;;;;;;;;6312994;28;24561;-84
2024/03/02 08:52:26;;;;;;;15.95;9.02;;;;;;;;;;6302460;28;24417;-82
2024/03/02 08:55:28;;;;;;;13.83;8.77;;;;;;;;;;6321791;28;24414;-82
2024/03/02 08:58:31;;;;;;;15.63;8.38;;;;;;;;;;6321539;28;24853;-82
2024/03/02 09:01:34;;;;;;;11.48;7.35;;;;;;;;;;6323351;28;24464;-85
2024/03/02 09:04:35;;;;;;;13.82;7.03;;;;;;;;;;6324400;28;25137;-84
2024/03/02 09:07:38;;;;;;;10.70;6.67;;;;;;;;;;6326867;28;24421;-85
2024/03/02 09:10:40;;;;;;;17.10;6.30;;;;;;;;;;6324481;28;24430;-82
2024/03/02 09:13:44;;;;;;;7.95;5.82;;;;;;;;;;6327333;28;25179;-85
2024/03/02 09:16:46;;;;;;;9.73;6.00;;;;;;;;;;6323303;28;24411;-87
2024/03/02 09:19:48;;;;;;;7.93;5.60;;;;;;;;;;6323611;28;24442;-83
2024/03/02 09:22:50;;;;;;;9.15;5.60;;;;;;;;;;6325695;28;24422;-84
2024/03/02 09:25:51;;;;;;;7.53;4.95;;;;;;;;;;6325897;28;24409;-85
2024/03/02 09:29:01;;;;;;;5.68;4.45;;;;;;;;;;6327347;28;24445;-86
2024/03/02 09:32:03;;;;;;;6.30;4.53;;;;;;;;;;6328756;28;24481;-84
2024/03/02 09:35:05;;;;;;;6.88;5.22;;;;;;;;;;6323206;28;24434;-83
2024/03/02 09:38:07;;;;;;;8.82;6.35;;;;;;;;;;6323761;28;24875;-83
2024/03/02 09:41:09;;;;;;;9.20;6.25;;;;;;;;;;6319126;28;24422;-84
2024/03/02 09:44:12;;;;;;;10.97;6.57;;;;;;;;;;6329219;28;24594;-85
2024/03/02 09:47:14;;;;;;;8.80;5.40;;;;;;;;;;6328488;28;24851;-84
2024/03/02 09:50:17;;;;;;;7.47;4.85;;;;;;;;;;6322182;28;24497;-83
2024/03/02 09:53:19;;;;;;;6.82;4.50;;;;;;;;;;6327201;28;24426;-83
2024/03/02 09:56:22;;;;;;;7.25;4.47;;;;;;;;;;6321224;28;24429;-83
2024/03/02 09:59:25;;;;;;;6.90;3.72;;;;;;;;;;6323677;28;24544;-84
2024/03/02 10:02:30;;;;;;;5.70;3.90;;;;;;;;;;6323731;28;24505;-85
2024/03/02 10:05:32;;;;;;;5.85;3.78;;;;;;;;;;6319074;28;24495;-83
2024/03/02 10:08:43;;;;;;;4.40;3.30;;;;;;;;;;6320440;28;24460;-84
2024/03/02 10:11:45;;;;;;;4.18;3.30;;;;;;;;;;6320136;28;24890;-86
2024/03/02 10:14:51;;;;;;;4.82;3.10;;;;;;;;;;6318970;28;24409;-83
2024/03/02 10:17:56;;;;;;;4.20;2.95;;;;;;;;;;6312952;28;24433;-84
2024/03/02 10:21:14;;;;;;;4.80;3.27;;;;;;;;;;6316162;28;24565;-84
2024/03/02 10:24:16;;;;;;;4.68;3.25;;;;;;;;;;6318796;28;24863;-82
2024/03/02 10:27:19;;;;;;;5.28;3.58;;;;;;;;;;6317538;28;24431;-83
2024/03/02 10:30:22;;;;;;;6.87;3.73;;;;;;;;;;6314538;28;24449;-84
2024/03/02 10:33:25;;;;;;;8.00;3.75;;;;;;;;;;6319575;28;24820;-83
2024/03/02 10:36:27;;;;;;;5.97;3.85;;;;;;;;;;6320736;28;24410;-83
2024/03/02 10:39:29;;;;;;;5.45;3.90;;;;;;;;;;6322371;28;24417;-83
2024/03/02 10:42:31;;;;;;;6.70;4.23;;;;;;;;;;6326497;28;24797;-82
2024/03/02 10:45:35;;;;;;;5.82;4.13;;;;;;;;;;6319342;28;24426;-84
2024/03/02 10:48:37;;;;;;;6.93;4.30;;;;;;;;;;6319672;28;24460;-83
2024/03/02 10:51:38;;;;;;;7.22;4.35;;;;;;;;;;6321949;28;25057;-83
2024/03/02 10:54:40;;;;;;;8.60;4.80;;;;;;;;;;6321190;28;24433;-83
2024/03/02 10:57:44;;;;;;;7.50;5.07;;;;;;;;;;6326278;28;24432;-83
2024/03/02 11:00:47;;;;;;;7.03;5.07;;;;;;;;;;6320447;28;24421;-83
2024/03/02 11:03:54;;;;;;;9.07;5.53;;;;;;;;;;6319751;28;24502;-84
2024/03/02 11:07:01;;;;;;;9.23;5.70;;;;;;;;;;6321977;28;24512;-84
2024/03/02 11:10:08;;;;;;;9.82;5.63;;;;;;;;;;6319174;28;24446;-81
2024/03/02 11:13:13;;;;;;;7.85;5.45;;;;;;;;;;6323285;28;24829;-84
2024/03/02 11:16:23;;;;;;;11.20;6.00;;;;;;;;;;6327392;28;24457;-84
2024/03/02 11:19:25;;;;;;;11.13;6.20;;;;;;;;;;6319412;28;24428;-83
2024/03/02 11:22:27;;;;;;;9.60;5.90;;;;;;;;;;6324071;28;24649;-85
2024/03/02 11:25:29;;;;;;;9.32;6.63;;;;;;;;;;6328280;28;24417;-82
2024/03/02 11:28:36;;;;;;;9.48;6.28;;;;;;;;;;6330119;28;24429;-83
2024/03/02 11:32:01;;;;;;;11.15;6.90;;;;;;;;;;6326338;28;24430;-85
2024/03/02 11:35:04;;;;;;;12.00;6.57;;;;;;;;;;6325777;28;24584;-83
2024/03/02 11:38:06;;;;;;;10.35;6.97;;;;;;;;;;6327327;28;24463;-85
2024/03/02 11:41:09;;;;;;;7.95;5.47;;;;;;;;;;6324893;28;24465;-83
2024/03/02 11:44:12;;;;;;;6.60;4.30;;;;;;;;;;6319705;28;24422;-84
2024/03/02 11:47:17;;;;;;;6.63;4.38;;;;;;;;;;6320747;28;24442;-83
2024/03/02 11:50:30;;;;;;;6.97;5.18;;;;;;;;;;6319777;28;24824;-84
2024/03/02 11:53:33;;;;;;;6.68;4.85;;;;;;;;;;6324141;28;24426;-86
2024/03/02 11:56:35;;;;;;;7.40;5.20;;;;;;;;;;6319347;28;24537;-84
2024/03/02 11:59:38;;;;;;;8.10;5.77;;;;;;;;;;6323608;28;24422;-85
2024/03/02 12:02:44;;;;;;;6.95;5.20;;;;;;;;;;6323302;28;24897;-83
2024/03/02 12:05:50;;;;;;;7.30;5.70;;;;;;;;;;6323473;28;24831;-84
2024/03/02 12:08:53;;;;;;;7.28;5.50;;;;;;;;;;6327342;28;24705;-83
2024/03/02 12:12:05;;;;;;;9.27;5.95;;;;;;;;;;6327897;28;24508;-82
2024/03/02 12:15:09;;;;;;;9.23;6.25;;;;;;;;;;6328238;28;24448;-82
2024/03/02 12:18:21;;;;;;;7.68;6.00;;;;;;;;;;6325628;28;24487;-84
2024/03/02 12:21:23;;;;;;;7.53;5.80;;;;;;;;;;6325855;28;24545;-84
2024/03/02 12:24:27;;;;;;;8.73;6.80;;;;;;;;;;6294219;28;24614;-85
2024/03/02 12:27:29;;;;;;;9.73;6.53;;;;;;;;;;6323882;28;24426;-83
2024/03/02 12:30:32;;;;;;;9.57;7.03;;;;;;;;;;6324959;28;24493;-85
2024/03/02 12:33:35;;;;;;;10.93;6.82;;;;;;;;;;6325995;28;24452;-84
2024/03/02 12:36:39;;;;;;;10.57;7.07;;;;;;;;;;6329877;28;24418;-86
2024/03/02 12:39:40;;;;;;;9.07;6.80;;;;;;;;;;6321401;28;24430;-82
2024/03/02 12:42:42;;;;;;;9.18;6.72;;;;;;;;;;6324707;28;24438;-83
2024/03/02 12:45:44;;;;;;;8.77;6.68;;;;;;;;;;6330612;28;24832;-84
2024/03/02 12:48:48;;;;;;;9.73;7.05;;;;;;;;;;6331479;28;24426;-84
2024/03/02 12:51:53;;;;;;;9.15;6.93;;;;;;;;;;6325991;28;24625;-84
2024/03/02 12:54:58;;;;;;;9.10;6.70;;;;;;;;;;6330066;28;24425;-84
2024/03/02 12:58:00;;;;;;;9.45;7.18;;;;;;;;;;6324654;28;24422;-84
2024/03/02 13:01:08;;;;;;;10.48;7.43;;;;;;;;;;6324470;28;24425;-83
2024/03/02 13:04:12;;;;;;;9.18;6.72;;;;;;;;;;6325801;28;24414;-83
2024/03/02 13:07:14;;;;;;;8.52;6.50;;;;;;;;;;6322340;28;24473;-83
2024/03/02 13:10:16;;;;;;;11.43;6.77;;;;;;;;;;6324110;28;24539;-83
2024/03/02 13:13:18;;;;;;;10.48;6.78;;;;;;;;;;6324862;28;24441;-85
2024/03/02 13:16:22;;;;;;;9.50;6.93;;;;;;;;;;6319854;28;24428;-85
2024/03/02 13:19:30;;;;;;;9.33;6.60;;;;;;;;;;6318931;28;24386;-85
2024/03/02 13:22:32;;;;;;;9.43;7.10;;;;;;;;;;6317235;28;24850;-82
2024/03/02 13:25:34;;;;;;;9.33;6.67;;;;;;;;;;6320649;28;24501;-83
2024/03/02 13:28:35;;;;;;;8.30;6.30;;;;;;;;;;6323941;28;24801;-84
2024/03/02 13:31:37;;;;;;;9.32;6.40;;;;;;;;;;6321823;28;24425;-83
2024/03/02 13:34:41;;;;;;;9.10;6.70;;;;;;;;;;6324743;28;24413;-82
2024/03/02 13:37:42;;;;;;;7.78;6.25;;;;;;;;;;6322542;28;24749;-81
2024/03/02 13:40:44;;;;;;;8.73;6.90;;;;;;;;;;6324226;28;24423;-84
2024/03/02 13:43:46;;;;;;;8.38;6.82;;;;;;;;;;6327113;28;24597;-83
2024/03/02 13:46:48;;;;;;;9.68;6.50;;;;;;;;;;6323310;28;24839;-82
2024/03/02 13:49:51;;;;;;;9.13;6.82;;;;;;;;;;6320348;28;24423;-83
2024/03/02 13:52:53;;;;;;;9.77;6.40;;;;;;;;;;6324254;28;24414;-81
2024/03/02 13:55:55;;;;;;;9.45;6.65;;;;;;;;;;6320526;28;24818;-82
2024/03/02 13:58:57;;;;;;;9.63;7.13;;;;;;;;;;6320700;28;24877;-84
2024/03/02 14:01:59;;;;;;;9.40;6.97;;;;;;;;;;6323517;28;24415;-85
2024/03/02 14:05:02;;;;;;;9.95;7.53;;;;;;;;;;6324753;28;24798;-83
2024/03/02 14:08:05;;;;;;;10.35;7.68;;;;;;;;;;6328022;28;24876;-84
2024/03/02 14:11:14;;;;;;;10.57;7.60;;;;;;;;;;6321279;28;24633;-87
2024/03/02 14:14:16;;;;;;;10.48;7.55;;;;;;;;;;6319894;28;24488;-86
2024/03/02 14:17:18;;;;;;;9.55;7.18;;;;;;;;;;6322755;28;24453;-83
2024/03/02 14:20:23;;;;;;;10.18;7.35;;;;;;;;;;6324296;28;24836;-83
2024/03/02 14:23:29;;;;;;;11.57;7.93;;;;;;;;;;6323843;28;24900;-85
2024/03/02 14:26:32;;;;;;;9.43;7.18;;;;;;;;;;6320946;28;24833;-85
2024/03/02 14:29:37;;;;;;;8.95;7.20;;;;;;;;;;6323247;28;24621;-86
2024/03/02 14:32:39;;;;;;;10.52;7.53;;;;;;;;;;6327486;28;24421;-84
2024/03/02 14:35:42;;;;;;;11.40;7.77;;;;;;;;;;6323084;28;24839;-85
2024/03/02 14:38:49;;;;;;;11.00;7.85;;;;;;;;;;6320014;28;24861;-84
2024/03/02 14:41:51;;;;;;;10.50;7.75;;;;;;;;;;6323409;28;24418;-85
2024/03/02 14:44:52;;;;;;;11.55;8.00;;;;;;;;;;6319948;28;24619;-85
2024/03/02 14:47:54;;;;;;;10.43;7.95;;;;;;;;;;6318718;28;24426;-85
2024/03/02 14:51:02;;;;;;;10.18;7.63;;;;;;;;;;6318465;28;24419;-85
2024/03/02 14:54:04;;;;;;;15.48;8.23;;;;;;;;;;6323058;28;24497;-85
2024/03/02 14:57:06;;;;;;;10.88;7.57;;;;;;;;;;6323584;28;24773;-83
2024/03/02 15:00:11;;;;;;;9.30;7.40;;;;;;;;;;6321461;28;24859;-84
2024/03/02 15:03:12;;;;;;;9.20;7.05;;;;;;;;;;6326423;28;24468;-84
2024/03/02 15:06:15;;;;;;;9.30;7.05;;;;;;;;;;6323986;28;24427;-85
2024/03/02 15:09:18;;;;;;;8.57;7.50;;;;;;;;;;6324144;28;24517;-85
2024/03/02 15:12:20;;;;;;;8.18;6.47;;;;;;;;;;6323392;28;24421;-84
2024/03/02 15:15:21;;;;;;;7.93;5.60;;;;;;;;;;6320071;28;24418;-84
2024/03/02 15:18:23;;;;;;;7.22;5.00;;;;;;;;;;6328629;28;24915;-84
2024/03/02 15:21:27;;;;;;;26.45;16.58;;;;;;;;;;6324088;28;24505;-84
2024/03/02 15:24:28;;;;;;;78.60;38.58;;;;;;;;;;6329209;28;25133;-84
2024/03/02 15:27:30;;;;;;;106.13;52.83;;;;;;;;;;6328869;28;24838;-85
2024/03/02 15:30:32;;;;;;;30.02;15.88;;;;;;;;;;6328048;28;24438;-84
2024/03/02 15:33:34;;;;;;;6.40;4.20;;;;;;;;;;6328404;28;24425;-84
2024/03/02 15:36:37;;;;;;;8.63;4.38;;;;;;;;;;6330839;28;24437;-83
2024/03/02 15:39:39;;;;;;;5.40;3.90;;;;;;;;;;6325293;28;24411;-84
2024/03/02 15:42:41;;;;;;;5.80;4.20;;;;;;;;;;6328320;28;24426;-83
2024/03/02 15:45:42;;;;;;;6.60;4.65;;;;;;;;;;6322026;28;24433;-84
2024/03/02 15:48:44;;;;;;;4.97;4.18;;;;;;;;;;6323359;28;24816;-84
2024/03/02 15:51:47;;;;;;;6.93;4.72;;;;;;;;;;6325336;28;24421;-83
2024/03/02 15:54:49;;;;;;;6.00;4.50;;;;;;;;;;6325551;28;24422;-84
2024/03/02 15:57:51;;;;;;;7.22;4.70;;;;;;;;;;6328611;28;24492;-84
2024/03/02 16:00:53;;;;;;;6.07;4.75;;;;;;;;;;6325223;28;24494;-84
2024/03/02 16:03:55;;;;;;;7.10;5.03;;;;;;;;;;6329312;28;24444;-86
2024/03/02 16:06:58;;;;;;;7.90;5.30;;;;;;;;;;6323615;28;24414;-86
2024/03/02 16:10:04;;;;;;;8.68;5.35;;;;;;;;;;6324136;28;24425;-85
2024/03/02 16:13:06;;;;;;;8.07;5.30;;;;;;;;;;6321939;28;24506;-84
2024/03/02 16:16:07;;;;;;;7.17;5.10;;;;;;;;;;6321788;28;25056;-84
2024/03/02 16:19:09;;;;;;;7.80;5.45;;;;;;;;;;6324005;28;24437;-84
2024/03/02 16:22:12;;;;;;;7.18;5.18;;;;;;;;;;6320287;28;24437;-87
2024/03/02 16:25:14;;;;;;;8.77;5.80;;;;;;;;;;6321635;28;24530;-84
2024/03/02 16:28:16;;;;;;;8.50;5.63;;;;;;;;;;6325212;28;24441;-85
2024/03/02 16:31:18;;;;;;;8.93;5.55;;;;;;;;;;6320961;28;24487;-87
2024/03/02 16:34:19;;;;;;;7.40;5.68;;;;;;;;;;6324025;28;24410;-84
2024/03/02 16:37:24;;;;;;;9.35;5.68;;;;;;;;;;6321150;28;24442;-84
2024/03/02 16:40:27;;;;;;;7.38;5.53;;;;;;;;;;6324529;28;24407;-84
2024/03/02 16:43:29;;;;;;;8.95;5.80;;;;;;;;;;6327158;28;24405;-85
2024/03/02 16:46:31;;;;;;;8.02;5.90;;;;;;;;;;6324744;28;24414;-84
2024/03/02 16:49:33;;;;;;;8.45;6.10;;;;;;;;;;6326841;28;24406;-84
2024/03/02 16:52:36;;;;;;;7.80;5.93;;;;;;;;;;6324406;28;24420;-84
2024/03/02 16:55:38;;;;;;;8.23;6.47;;;;;;;;;;6323499;28;24425;-87
2024/03/02 16:58:40;;;;;;;8.30;6.13;;;;;;;;;;6315385;28;25892;-87
2024/03/02 17:01:42;;;;;;;10.48;6.65;;;;;;;;;;6323989;28;24494;-84
2024/03/02 17:04:43;;;;;;;9.63;6.97;;;;;;;;;;6320771;28;24406;-84
2024/03/02 17:07:46;;;;;;;10.27;6.73;;;;;;;;;;6314967;28;24481;-84
2024/03/02 17:10:49;;;;;;;9.77;6.80;;;;;;;;;;6318082;28;24409;-85
2024/03/02 17:13:57;;;;;;;9.57;7.05;;;;;;;;;;6320951;28;24478;-86
2024/03/02 17:16:59;;;;;;;10.70;7.60;;;;;;;;;;6323850;28;24426;-84
2024/03/02 17:20:01;;;;;;;10.52;7.50;;;;;;;;;;6327333;28;24415;-84
2024/03/02 17:23:04;;;;;;;10.98;7.60;;;;;;;;;;6323670;28;24432;-84
2024/03/02 17:26:06;;;;;;;11.43;7.93;;;;;;;;;;6325587;28;24427;-84
2024/03/02 17:29:08;;;;;;;74.60;46.50;;;;;;;;;;6321624;28;24518;-82
2024/03/02 17:32:12;;;;;;;37.53;22.07;;;;;;;;;;6318579;28;24473;-84
2024/03/02 17:35:14;;;;;;;159.35;75.10;;;;;;;;;;6320095;28;24465;-86
2024/03/02 17:38:18;;;;;;;59.97;29.58;;;;;;;;;;6323124;28;24410;-84
2024/03/02 17:41:19;;;;;;;31.77;18.13;;;;;;;;;;6322777;28;24812;-84
2024/03/02 17:44:21;;;;;;;12.35;9.27;;;;;;;;;;6321446;28;24421;-83
2024/03/02 17:47:23;;;;;;;12.88;9.50;;;;;;;;;;6322551;28;24813;-82
2024/03/02 17:50:25;;;;;;;11.75;9.38;;;;;;;;;;6322137;28;24421;-84
2024/03/02 17:53:28;;;;;;;12.65;9.32;;;;;;;;;;6317900;28;24425;-85
2024/03/02 17:56:30;;;;;;;12.50;9.47;;;;;;;;;;6318414;28;24491;-85
2024/03/02 17:59:31;;;;;;;12.70;10.05;;;;;;;;;;6316458;28;24615;-84
2024/03/02 18:02:34;;;;;;;15.25;10.45;;;;;;;;;;6317386;28;24618;-85
2024/03/02 18:05:36;;;;;;;14.88;11.05;;;;;;;;;;6320497;28;24421;-83